K21S

2018-06-07 23:45:08Z

Plaintext report →

Current Status: Clear

Temperature
High33.7 °C92.7 °F
Current32.5 °C90.5 °F
Low20.8 °C69.4 °F
Feels Like34.1 °C93.3 °F
Dewpoint19.2 °C66.6 °F
Winds
Speed and Direction1.9 m/s4.2 mi/h 3 kn95 °
Gust0.0 m/s0.00 mi/h 0 kn
SquallUnavailable
Pressure and Humidity
Pressure At Field Level1012.8 mb29.9 in
Pressure At Sea Level1013.3 mb29.9 in
Pressure Trend-0.7 mb-0.0 in
Pressure Tendency 7
Humidity45 %
Historical Weather Phenomenon Graphs

Additional Information:

  METAR K21S 072345Z AUTO 10003KT NCD 32/19 A2991 RMK AO2 SLP133 10337
  20208 57007 =    
Cloud Cover
Layer 1 Undetected
Layer 2 Undetected
Layer 3 Undetected
Winds
2-minute Winds
Minimum0.1 m/s0.22 mi/h 0 kn45 °
Average1.3 m/s2.91 mi/h 2 kn100 °
Maximum3.4 m/s7.61 mi/h 6 kn196 °
10-minute Winds
Minimum0.1 m/s0.22 mi/h 0 kn21 °
Average1.6 m/s3.58 mi/h 3 kn106 °
Maximum4.5 m/s10.07 mi/h 8 kn265 °
Precipitation
Intensity0.00 mm/h0.00 in/h
Rainfall
1-hour Total0.00 mm0.00 in
3-hour Total0.00 mm0.00 in
6-hour Total0.00 mm0.00 in
24-hour Total0.00 mm0.00 in
Precipitation
1-hour Total0.00 mm0.00 in
3-hour Total0.00 mm0.00 in
6-hour Total0.00 mm0.00 in
24-hour Total0.00 mm0.00 in